sensor_id;sensor_type;location;lat;lon;timestamp;pressure;altitude;pressure_sealevel;temperature;humidity
42603;BME280;28233;55.748;48.752;2023-09-07T00:00:58;98397.75;;;14.02;100.00
42603;BME280;28233;55.748;48.752;2023-09-07T00:03:01;98396.63;;;14.07;100.00
42603;BME280;28233;55.748;48.752;2023-09-07T00:05:05;98395.47;;;14.08;100.00
42603;BME280;28233;55.748;48.752;2023-09-07T00:07:08;98401.41;;;14.10;100.00
42603;BME280;28233;55.748;48.752;2023-09-07T00:09:11;98411.25;;;14.07;100.00
42603;BME280;28233;55.748;48.752;2023-09-07T00:11:15;98403.69;;;14.04;100.00
42603;BME280;28233;55.748;48.752;2023-09-07T00:13:18;98408.03;;;14.05;100.00
42603;BME280;28233;55.748;48.752;2023-09-07T00:15:21;98403.31;;;14.06;100.00
42603;BME280;28233;55.748;48.752;2023-09-07T00:17:25;98415.53;;;14.05;100.00
42603;BME280;28233;55.748;48.752;2023-09-07T00:19:28;98415.97;;;14.07;100.00
42603;BME280;28233;55.748;48.752;2023-09-07T00:21:32;98420.72;;;14.06;100.00
42603;BME280;28233;55.748;48.752;2023-09-07T00:23:35;98421.50;;;14.07;100.00
42603;BME280;28233;55.748;48.752;2023-09-07T00:25:37;98434.38;;;13.99;100.00
42603;BME280;28233;55.748;48.752;2023-09-07T00:27:40;98425.59;;;13.90;99.07
42603;BME280;28233;55.748;48.752;2023-09-07T00:29:43;98427.72;;;13.77;99.74
42603;BME280;28233;55.748;48.752;2023-09-07T00:31:46;98435.34;;;13.61;100.00
42603;BME280;28233;55.748;48.752;2023-09-07T00:33:49;98426.19;;;13.57;100.00
42603;BME280;28233;55.748;48.752;2023-09-07T00:35:51;98439.94;;;13.53;100.00
42603;BME280;28233;55.748;48.752;2023-09-07T00:37:54;98441.53;;;13.54;99.69
42603;BME280;28233;55.748;48.752;2023-09-07T00:39:57;98441.06;;;13.48;98.99
42603;BME280;28233;55.748;48.752;2023-09-07T00:42:00;98444.91;;;13.44;99.15
42603;BME280;28233;55.748;48.752;2023-09-07T00:44:03;98444.84;;;13.40;98.99
42603;BME280;28233;55.748;48.752;2023-09-07T00:46:06;98449.94;;;13.38;97.56
42603;BME280;28233;55.748;48.752;2023-09-07T00:48:09;98440.63;;;13.27;96.95
42603;BME280;28233;55.748;48.752;2023-09-07T00:50:14;98448.34;;;13.18;96.46
42603;BME280;28233;55.748;48.752;2023-09-07T00:52:19;98449.00;;;13.11;96.01
42603;BME280;28233;55.748;48.752;2023-09-07T00:54:23;98448.78;;;13.00;96.11
42603;BME280;28233;55.748;48.752;2023-09-07T00:56:26;98469.69;;;13.01;96.05
42603;BME280;28233;55.748;48.752;2023-09-07T00:58:28;98457.44;;;12.99;96.72
42603;BME280;28233;55.748;48.752;2023-09-07T01:00:33;98463.00;;;13.02;96.68
42603;BME280;28233;55.748;48.752;2023-09-07T01:02:36;98462.22;;;13.02;97.07
42603;BME280;28233;55.748;48.752;2023-09-07T01:04:39;98457.44;;;12.99;97.54
42603;BME280;28233;55.748;48.752;2023-09-07T01:06:52;98468.16;;;13.04;96.86
42603;BME280;28233;55.748;48.752;2023-09-07T01:09:06;98471.28;;;13.02;96.50
42603;BME280;28233;55.748;48.752;2023-09-07T01:11:14;98461.44;;;13.01;95.20
42603;BME280;28233;55.748;48.752;2023-09-07T01:13:18;98458.16;;;12.96;95.93
42603;BME280;28233;55.748;48.752;2023-09-07T01:15:21;98464.84;;;12.95;95.89
42603;BME280;28233;55.748;48.752;2023-09-07T01:17:24;98454.16;;;12.93;95.43
42603;BME280;28233;55.748;48.752;2023-09-07T01:19:27;98459.47;;;12.82;96.09
42603;BME280;28233;55.748;48.752;2023-09-07T01:21:38;98457.72;;;12.74;97.00
42603;BME280;28233;55.748;48.752;2023-09-07T01:23:42;98463.06;;;12.67;97.65
42603;BME280;28233;55.748;48.752;2023-09-07T01:25:45;98461.84;;;12.64;97.70
42603;BME280;28233;55.748;48.752;2023-09-07T01:27:49;98456.34;;;12.64;98.39
42603;BME280;28233;55.748;48.752;2023-09-07T01:29:53;98475.28;;;12.66;98.81
42603;BME280;28233;55.748;48.752;2023-09-07T01:31:56;98466.22;;;12.65;98.29
42603;BME280;28233;55.748;48.752;2023-09-07T01:33:59;98468.09;;;12.61;98.73
42603;BME280;28233;55.748;48.752;2023-09-07T01:36:02;98470.75;;;12.58;99.59
42603;BME280;28233;55.748;48.752;2023-09-07T01:38:05;98471.13;;;12.56;99.49
42603;BME280;28233;55.748;48.752;2023-09-07T01:40:08;98471.41;;;12.51;99.03
42603;BME280;28233;55.748;48.752;2023-09-07T01:42:11;98468.41;;;12.40;99.70
42603;BME280;28233;55.748;48.752;2023-09-07T01:44:14;98475.09;;;12.39;100.00
42603;BME280;28233;55.748;48.752;2023-09-07T01:46:17;98464.72;;;12.33;100.00
42603;BME280;28233;55.748;48.752;2023-09-07T01:48:19;98462.66;;;12.30;100.00
42603;BME280;28233;55.748;48.752;2023-09-07T01:50:23;98472.38;;;12.23;100.00
42603;BME280;28233;55.748;48.752;2023-09-07T01:52:28;98472.38;;;12.23;100.00
42603;BME280;28233;55.748;48.752;2023-09-07T01:54:30;98461.69;;;12.22;100.00
42603;BME280;28233;55.748;48.752;2023-09-07T01:56:33;98472.72;;;12.22;100.00
42603;BME280;28233;55.748;48.752;2023-09-07T01:58:36;98462.94;;;12.24;100.00
42603;BME280;28233;55.748;48.752;2023-09-07T02:00:40;98470.06;;;12.25;100.00
42603;BME280;28233;55.748;48.752;2023-09-07T02:02:42;98481.06;;;12.25;100.00
42603;BME280;28233;55.748;48.752;2023-09-07T02:04:45;98472.81;;;12.25;100.00
42603;BME280;28233;55.748;48.752;2023-09-07T02:06:48;98479.47;;;12.24;100.00
42603;BME280;28233;55.748;48.752;2023-09-07T02:08:51;98478.75;;;12.27;100.00
42603;BME280;28233;55.748;48.752;2023-09-07T02:10:54;98486.94;;;12.24;100.00
42603;BME280;28233;55.748;48.752;2023-09-07T02:12:59;98479.19;;;12.30;100.00
42603;BME280;28233;55.748;48.752;2023-09-07T02:15:03;98481.69;;;12.35;100.00
42603;BME280;28233;55.748;48.752;2023-09-07T02:17:09;98484.34;;;12.31;100.00
42603;BME280;28233;55.748;48.752;2023-09-07T02:19:17;98484.34;;;12.31;100.00
42603;BME280;28233;55.748;48.752;2023-09-07T02:21:22;98491.38;;;12.29;100.00
42603;BME280;28233;55.748;48.752;2023-09-07T02:23:25;98485.41;;;12.26;99.73
42603;BME280;28233;55.748;48.752;2023-09-07T02:25:28;98494.56;;;12.31;99.35
42603;BME280;28233;55.748;48.752;2023-09-07T02:27:33;98501.16;;;12.26;98.95
42603;BME280;28233;55.748;48.752;2023-09-07T02:29:36;98499.69;;;12.32;98.64
42603;BME280;28233;55.748;48.752;2023-09-07T02:31:40;98504.41;;;12.32;97.66
42603;BME280;28233;55.748;48.752;2023-09-07T02:33:43;98495.72;;;12.30;97.12
42603;BME280;28233;55.748;48.752;2023-09-07T02:35:49;98503.91;;;12.26;96.02
42603;BME280;28233;55.748;48.752;2023-09-07T02:37:52;98510.47;;;12.21;96.09
42603;BME280;28233;55.748;48.752;2023-09-07T02:39:55;98497.00;;;12.16;96.35
42603;BME280;28233;55.748;48.752;2023-09-07T02:41:59;98511.28;;;12.22;96.49
42603;BME280;28233;55.748;48.752;2023-09-07T02:44:01;98512.50;;;12.24;97.12
42603;BME280;28233;55.748;48.752;2023-09-07T02:46:05;98510.56;;;12.25;96.90
42603;BME280;28233;55.748;48.752;2023-09-07T02:48:08;98510.19;;;12.26;96.96
42603;BME280;28233;55.748;48.752;2023-09-07T02:50:11;98511.09;;;12.31;96.75
42603;BME280;28233;55.748;48.752;2023-09-07T02:52:14;98505.94;;;12.29;96.74
42603;BME280;28233;55.748;48.752;2023-09-07T02:54:16;98506.72;;;12.30;96.78
42603;BME280;28233;55.748;48.752;2023-09-07T02:56:19;98507.53;;;12.30;96.50
42603;BME280;28233;55.748;48.752;2023-09-07T02:58:25;98511.09;;;12.31;96.24
42603;BME280;28233;55.748;48.752;2023-09-07T03:00:27;98508.34;;;12.31;96.20
42603;BME280;28233;55.748;48.752;2023-09-07T03:02:30;98510.72;;;12.32;96.15
42603;BME280;28233;55.748;48.752;2023-09-07T03:04:33;98499.19;;;12.26;96.35
42603;BME280;28233;55.748;48.752;2023-09-07T03:06:36;98511.25;;;12.38;95.97
42603;BME280;28233;55.748;48.752;2023-09-07T03:08:42;98504.06;;;12.33;95.15
42603;BME280;28233;55.748;48.752;2023-09-07T03:10:45;98515.88;;;12.34;95.26
42603;BME280;28233;55.748;48.752;2023-09-07T03:12:48;98514.28;;;12.33;94.90
42603;BME280;28233;55.748;48.752;2023-09-07T03:14:51;98523.78;;;12.35;94.99
42603;BME280;28233;55.748;48.752;2023-09-07T03:16:53;98521.47;;;12.37;94.91
42603;BME280;28233;55.748;48.752;2023-09-07T03:18:57;98529.38;;;12.39;94.47
42603;BME280;28233;55.748;48.752;2023-09-07T03:21:01;98526.63;;;12.39;93.94
42603;BME280;28233;55.748;48.752;2023-09-07T03:23:04;98523.06;;;12.38;93.91
42603;BME280;28233;55.748;48.752;2023-09-07T03:25:08;98537.56;;;12.35;94.00
42603;BME280;28233;55.748;48.752;2023-09-07T03:27:12;98529.75;;;12.37;93.74
42603;BME280;28233;55.748;48.752;2023-09-07T03:29:15;98528.50;;;12.35;93.46
42603;BME280;28233;55.748;48.752;2023-09-07T03:31:17;98521.72;;;12.32;93.62
42603;BME280;28233;55.748;48.752;2023-09-07T03:33:21;98530.25;;;12.43;93.63
42603;BME280;28233;55.748;48.752;2023-09-07T03:35:24;98530.69;;;12.45;93.23
42603;BME280;28233;55.748;48.752;2023-09-07T03:37:27;98544.38;;;12.41;93.15
42603;BME280;28233;55.748;48.752;2023-09-07T03:39:30;98540.84;;;12.41;92.71
42603;BME280;28233;55.748;48.752;2023-09-07T03:41:34;98537.91;;;12.34;92.14
42603;BME280;28233;55.748;48.752;2023-09-07T03:43:36;98539.34;;;12.27;92.27
42603;BME280;28233;55.748;48.752;2023-09-07T03:45:39;98538.63;;;12.31;92.43
42603;BME280;28233;55.748;48.752;2023-09-07T03:47:43;98540.66;;;12.34;91.47
42603;BME280;28233;55.748;48.752;2023-09-07T03:49:46;98539.09;;;12.33;91.44
42603;BME280;28233;55.748;48.752;2023-09-07T03:51:49;98538.81;;;12.38;91.27
42603;BME280;28233;55.748;48.752;2023-09-07T03:53:52;98545.63;;;12.44;91.09
42603;BME280;28233;55.748;48.752;2023-09-07T03:55:55;98552.75;;;12.45;90.31
42603;BME280;28233;55.748;48.752;2023-09-07T03:57:58;98544.91;;;12.47;90.02
42603;BME280;28233;55.748;48.752;2023-09-07T04:00:01;98545.72;;;12.47;89.79
42603;BME280;28233;55.748;48.752;2023-09-07T04:02:08;98534.69;;;12.47;88.38
42603;BME280;28233;55.748;48.752;2023-09-07T04:04:11;98534.88;;;12.39;87.28
42603;BME280;28233;55.748;48.752;2023-09-07T04:06:14;98546.28;;;12.37;87.74
42603;BME280;28233;55.748;48.752;2023-09-07T04:08:17;98551.25;;;12.32;87.79
42603;BME280;28233;55.748;48.752;2023-09-07T04:10:19;98569.38;;;12.33;87.39
42603;BME280;28233;55.748;48.752;2023-09-07T04:12:22;98542.97;;;12.32;87.31
42603;BME280;28233;55.748;48.752;2023-09-07T04:14:25;98550.00;;;12.29;87.05
42603;BME280;28233;55.748;48.752;2023-09-07T04:16:28;98562.19;;;12.28;87.58
42603;BME280;28233;55.748;48.752;2023-09-07T04:18:31;98559.16;;;12.33;87.96
42603;BME280;28233;55.748;48.752;2023-09-07T04:20:34;98562.34;;;12.35;87.06
42603;BME280;28233;55.748;48.752;2023-09-07T04:22:39;98564.31;;;12.35;87.11
42603;BME280;28233;55.748;48.752;2023-09-07T04:24:42;98573.19;;;12.28;86.78
42603;BME280;28233;55.748;48.752;2023-09-07T04:26:45;98561.72;;;12.10;87.20
42603;BME280;28233;55.748;48.752;2023-09-07T04:28:48;98566.34;;;12.06;87.96
42603;BME280;28233;55.748;48.752;2023-09-07T04:30:51;98570.97;;;12.02;88.13
42603;BME280;28233;55.748;48.752;2023-09-07T04:32:54;98571.31;;;12.00;87.46
42603;BME280;28233;55.748;48.752;2023-09-07T04:34:56;98575.16;;;12.12;87.74
42603;BME280;28233;55.748;48.752;2023-09-07T04:37:01;98569.72;;;12.15;87.28
42603;BME280;28233;55.748;48.752;2023-09-07T04:39:04;98572.91;;;12.17;87.19
42603;BME280;28233;55.748;48.752;2023-09-07T04:41:11;98568.59;;;12.16;86.94
42603;BME280;28233;55.748;48.752;2023-09-07T04:43:15;98557.56;;;12.16;87.08
42603;BME280;28233;55.748;48.752;2023-09-07T04:45:17;98580.03;;;12.18;86.97
42603;BME280;28233;55.748;48.752;2023-09-07T04:47:20;98570.97;;;12.18;86.16
42603;BME280;28233;55.748;48.752;2023-09-07T04:49:23;98579.31;;;12.21;85.98
42603;BME280;28233;55.748;48.752;2023-09-07T04:51:26;98579.41;;;12.25;84.05
42603;BME280;28233;55.748;48.752;2023-09-07T04:53:31;98579.78;;;12.23;84.86
42603;BME280;28233;55.748;48.752;2023-09-07T04:55:37;98574.06;;;12.32;85.01
42603;BME280;28233;55.748;48.752;2023-09-07T04:57:40;98576.03;;;12.32;84.52
42603;BME280;28233;55.748;48.752;2023-09-07T04:59:43;98577.38;;;12.38;84.46
42603;BME280;28233;55.748;48.752;2023-09-07T05:01:45;98575.75;;;12.53;83.28
42603;BME280;28233;55.748;48.752;2023-09-07T05:03:48;98592.56;;;12.47;81.66
42603;BME280;28233;55.748;48.752;2023-09-07T05:05:53;98575.50;;;12.42;81.98
42603;BME280;28233;55.748;48.752;2023-09-07T05:07:56;98591.22;;;12.41;81.27
42603;BME280;28233;55.748;48.752;2023-09-07T05:09:59;98584.00;;;12.37;81.28
42603;BME280;28233;55.748;48.752;2023-09-07T05:12:02;98596.88;;;12.48;80.66
42603;BME280;28233;55.748;48.752;2023-09-07T05:14:05;98585.25;;;12.55;79.72
42603;BME280;28233;55.748;48.752;2023-09-07T05:16:08;98579.28;;;12.53;79.40
42603;BME280;28233;55.748;48.752;2023-09-07T05:18:10;98575.13;;;12.59;80.00
42603;BME280;28233;55.748;48.752;2023-09-07T05:20:13;98580.34;;;12.64;79.51
42603;BME280;28233;55.748;48.752;2023-09-07T05:22:16;98572.81;;;12.61;78.82
42603;BME280;28233;55.748;48.752;2023-09-07T05:24:19;98573.25;;;12.63;78.20
42603;BME280;28233;55.748;48.752;2023-09-07T05:26:22;98576.34;;;12.62;78.60
42603;BME280;28233;55.748;48.752;2023-09-07T05:28:28;98587.63;;;12.73;79.04
42603;BME280;28233;55.748;48.752;2023-09-07T05:30:32;98581.22;;;12.84;78.91
42603;BME280;28233;55.748;48.752;2023-09-07T05:32:34;98581.66;;;12.86;77.41
42603;BME280;28233;55.748;48.752;2023-09-07T05:34:37;98597.38;;;12.86;76.61
42603;BME280;28233;55.748;48.752;2023-09-07T05:36:40;98582.72;;;12.82;75.88
42603;BME280;28233;55.748;48.752;2023-09-07T05:38:43;98591.00;;;12.82;75.13
42603;BME280;28233;55.748;48.752;2023-09-07T05:40:46;98603.78;;;12.74;74.98
42603;BME280;28233;55.748;48.752;2023-09-07T05:42:52;98591.03;;;12.66;75.23
42603;BME280;28233;55.748;48.752;2023-09-07T05:44:55;98590.47;;;12.60;75.65
42603;BME280;28233;55.748;48.752;2023-09-07T05:46:58;98582.94;;;12.57;75.91
42603;BME280;28233;55.748;48.752;2023-09-07T05:49:01;98592.38;;;12.56;77.22
42603;BME280;28233;55.748;48.752;2023-09-07T05:51:04;98595.47;;;12.55;77.58
42603;BME280;28233;55.748;48.752;2023-09-07T05:53:06;98591.13;;;12.54;77.96
42603;BME280;28233;55.748;48.752;2023-09-07T05:55:09;98586.47;;;12.58;77.35
42603;BME280;28233;55.748;48.752;2023-09-07T05:57:12;98582.94;;;12.57;76.63
42603;BME280;28233;55.748;48.752;2023-09-07T05:59:15;98588.44;;;12.57;76.57
42603;BME280;28233;55.748;48.752;2023-09-07T06:01:18;98575.47;;;12.58;77.20
42603;BME280;28233;55.748;48.752;2023-09-07T06:03:21;98597.66;;;12.65;77.54
42603;BME280;28233;55.748;48.752;2023-09-07T06:05:24;98582.97;;;12.77;77.45
42603;BME280;28233;55.748;48.752;2023-09-07T06:07:28;98596.56;;;12.85;75.74
42603;BME280;28233;55.748;48.752;2023-09-07T06:09:30;98584.13;;;12.92;74.84
42603;BME280;28233;55.748;48.752;2023-09-07T06:11:33;98590.13;;;12.97;74.90
42603;BME280;28233;55.748;48.752;2023-09-07T06:13:37;98607.28;;;13.06;74.68
42603;BME280;28233;55.748;48.752;2023-09-07T06:15:40;98604.53;;;13.06;74.13
42603;BME280;28233;55.748;48.752;2023-09-07T06:17:42;98592.75;;;13.09;72.54
42603;BME280;28233;55.748;48.752;2023-09-07T06:19:46;98596.13;;;13.19;72.02
42603;BME280;28233;55.748;48.752;2023-09-07T06:21:48;98594.41;;;13.30;72.34
42603;BME280;28233;55.748;48.752;2023-09-07T06:23:51;98598.78;;;13.50;71.74
42603;BME280;28233;55.748;48.752;2023-09-07T06:25:54;98603.06;;;13.67;70.88
42603;BME280;28233;55.748;48.752;2023-09-07T06:27:57;98597.13;;;13.88;70.14
42603;BME280;28233;55.748;48.752;2023-09-07T06:29:59;98600.38;;;13.94;68.84
42603;BME280;28233;55.748;48.752;2023-09-07T06:32:03;98604.19;;;13.86;68.07
42603;BME280;28233;55.748;48.752;2023-09-07T06:34:07;98610.69;;;13.74;68.50
42603;BME280;28233;55.748;48.752;2023-09-07T06:36:10;98611.59;;;13.82;68.45
42603;BME280;28233;55.748;48.752;2023-09-07T06:38:12;98607.75;;;13.86;67.10
42603;BME280;28233;55.748;48.752;2023-09-07T06:40:16;98614.13;;;13.90;67.01
42603;BME280;28233;55.748;48.752;2023-09-07T06:42:20;98604.81;;;13.99;66.73
42603;BME280;28233;55.748;48.752;2023-09-07T06:44:23;98609.69;;;14.28;66.39
42603;BME280;28233;55.748;48.752;2023-09-07T06:46:25;98606.38;;;14.42;64.80
42603;BME280;28233;55.748;48.752;2023-09-07T06:48:28;98608.81;;;14.47;64.59
42603;BME280;28233;55.748;48.752;2023-09-07T06:50:31;98609.28;;;14.53;64.39
42603;BME280;28233;55.748;48.752;2023-09-07T06:52:34;98622.22;;;14.68;64.61
42603;BME280;28233;55.748;48.752;2023-09-07T06:54:37;98607.63;;;14.71;62.99
42603;BME280;28233;55.748;48.752;2023-09-07T06:56:41;98611.94;;;14.69;62.58
42603;BME280;28233;55.748;48.752;2023-09-07T06:58:44;98615.28;;;14.55;62.68
42603;BME280;28233;55.748;48.752;2023-09-07T07:00:47;98619.75;;;14.40;63.83
42603;BME280;28233;55.748;48.752;2023-09-07T07:02:50;98634.03;;;14.46;64.14
42603;BME280;28233;55.748;48.752;2023-09-07T07:04:53;98631.28;;;14.46;63.45
42603;BME280;28233;55.748;48.752;2023-09-07T07:06:57;98615.28;;;14.55;63.18
42603;BME280;28233;55.748;48.752;2023-09-07T07:08:59;98628.28;;;14.77;62.52
42603;BME280;28233;55.748;48.752;2023-09-07T07:11:02;98626.72;;;14.80;61.22
42603;BME280;28233;55.748;48.752;2023-09-07T07:13:05;98626.78;;;14.84;61.51
42603;BME280;28233;55.748;48.752;2023-09-07T07:15:08;98625.72;;;14.65;62.32
42603;BME280;28233;55.748;48.752;2023-09-07T07:17:11;98657.25;;;14.41;64.41
42603;BME280;28233;55.748;48.752;2023-09-07T07:19:14;98645.84;;;14.20;65.79
42603;BME280;28233;55.748;48.752;2023-09-07T07:21:17;98645.00;;;13.96;67.51
42603;BME280;28233;55.748;48.752;2023-09-07T07:23:19;98648.94;;;13.56;71.07
42603;BME280;28233;55.748;48.752;2023-09-07T07:25:22;98642.78;;;13.08;74.76
42603;BME280;28233;55.748;48.752;2023-09-07T07:27:25;98651.53;;;12.78;76.27
42603;BME280;28233;55.748;48.752;2023-09-07T07:29:27;98651.81;;;12.57;76.69
42603;BME280;28233;55.748;48.752;2023-09-07T07:31:34;98652.72;;;12.45;77.51
42603;BME280;28233;55.748;48.752;2023-09-07T07:33:37;98643.56;;;12.41;78.95
42603;BME280;28233;55.748;48.752;2023-09-07T07:35:39;98654.69;;;12.45;79.00
42603;BME280;28233;55.748;48.752;2023-09-07T07:37:42;98652.53;;;12.54;79.00
42603;BME280;28233;55.748;48.752;2023-09-07T07:39:45;98659.38;;;12.60;77.36
42603;BME280;28233;55.748;48.752;2023-09-07T07:41:48;98652.78;;;12.65;75.92
42603;BME280;28233;55.748;48.752;2023-09-07T07:43:50;98652.44;;;12.66;76.19
42603;BME280;28233;55.748;48.752;2023-09-07T07:45:56;98645.06;;;12.71;76.38
42603;BME280;28233;55.748;48.752;2023-09-07T07:47:59;98655.09;;;12.79;76.44
42603;BME280;28233;55.748;48.752;2023-09-07T07:50:02;98635.09;;;12.82;74.72
42603;BME280;28233;55.748;48.752;2023-09-07T07:52:05;98637.94;;;12.85;74.66
42603;BME280;28233;55.748;48.752;2023-09-07T07:54:08;98654.13;;;12.87;74.79
42603;BME280;28233;55.748;48.752;2023-09-07T07:56:18;98642.53;;;12.97;73.54
42603;BME280;28233;55.748;48.752;2023-09-07T07:58:21;98637.31;;;12.92;73.48
42603;BME280;28233;55.748;48.752;2023-09-07T08:00:24;98644.94;;;12.99;72.38
42603;BME280;28233;55.748;48.752;2023-09-07T08:02:27;98649.53;;;13.10;71.95
42603;BME280;28233;55.748;48.752;2023-09-07T08:04:30;98647.81;;;13.22;71.36
42603;BME280;28233;55.748;48.752;2023-09-07T08:06:35;98644.38;;;13.44;70.73
42603;BME280;28233;55.748;48.752;2023-09-07T08:08:39;98648.94;;;13.56;70.27
42603;BME280;28233;55.748;48.752;2023-09-07T08:10:42;98654.84;;;13.55;69.70
42603;BME280;28233;55.748;48.752;2023-09-07T08:12:45;98647.56;;;13.46;69.17
42603;BME280;28233;55.748;48.752;2023-09-07T08:14:47;98645.66;;;13.31;69.22
42603;BME280;28233;55.748;48.752;2023-09-07T08:16:50;98646.34;;;13.08;70.37
42603;BME280;28233;55.748;48.752;2023-09-07T08:18:53;98646.41;;;13.12;71.57
42603;BME280;28233;55.748;48.752;2023-09-07T08:20:56;98648.31;;;13.08;73.21
42603;BME280;28233;55.748;48.752;2023-09-07T08:22:59;98640.53;;;13.14;72.79
42603;BME280;28233;55.748;48.752;2023-09-07T08:25:02;98643.13;;;13.06;71.22
42603;BME280;28233;55.748;48.752;2023-09-07T08:27:04;98657.38;;;13.08;70.19
42603;BME280;28233;55.748;48.752;2023-09-07T08:29:08;98649.53;;;13.10;70.23
42603;BME280;28233;55.748;48.752;2023-09-07T08:31:11;98656.63;;;13.11;69.72
42603;BME280;28233;55.748;48.752;2023-09-07T08:33:17;98664.56;;;13.13;70.31
42603;BME280;28233;55.748;48.752;2023-09-07T08:35:20;98659.84;;;13.14;71.02
42603;BME280;28233;55.748;48.752;2023-09-07T08:37:23;98649.25;;;13.16;71.70
42603;BME280;28233;55.748;48.752;2023-09-07T08:39:27;98655.94;;;13.15;72.05
42603;BME280;28233;55.748;48.752;2023-09-07T08:41:30;98650.13;;;13.20;72.28
42603;BME280;28233;55.748;48.752;2023-09-07T08:43:39;98650.03;;;13.32;71.95
42603;BME280;28233;55.748;48.752;2023-09-07T08:45:58;98659.09;;;13.32;71.41
42603;BME280;28233;55.748;48.752;2023-09-07T08:48:03;98654.53;;;13.40;71.34
42603;BME280;28233;55.748;48.752;2023-09-07T08:50:07;98658.97;;;13.45;70.30
42603;BME280;28233;55.748;48.752;2023-09-07T08:52:11;98650.63;;;13.41;70.38
42603;BME280;28233;55.748;48.752;2023-09-07T08:54:16;98655.34;;;13.41;70.49
42603;BME280;28233;55.748;48.752;2023-09-07T08:56:20;98657.88;;;13.49;69.97
42603;BME280;28233;55.748;48.752;2023-09-07T08:58:24;98662.53;;;13.45;70.15
42603;BME280;28233;55.748;48.752;2023-09-07T09:00:27;98660.03;;;13.40;71.20
42603;BME280;28233;55.748;48.752;2023-09-07T09:02:29;98662.41;;;13.38;75.46
42603;BME280;28233;55.748;48.752;2023-09-07T09:04:32;98658.13;;;13.25;78.24
42603;BME280;28233;55.748;48.752;2023-09-07T09:06:36;98662.88;;;13.08;76.79
42603;BME280;28233;55.748;48.752;2023-09-07T09:08:46;98660.69;;;12.98;75.74
42603;BME280;28233;55.748;48.752;2023-09-07T09:11:02;98657.09;;;12.98;75.08
42603;BME280;28233;55.748;48.752;2023-09-07T09:13:06;98660.25;;;12.96;75.35
42603;BME280;28233;55.748;48.752;2023-09-07T09:15:09;98661.16;;;12.84;75.97
42603;BME280;28233;55.748;48.752;2023-09-07T09:17:13;98668.09;;;12.62;77.21
42603;BME280;28233;55.748;48.752;2023-09-07T09:19:17;98671.94;;;12.42;79.23
42603;BME280;28233;55.748;48.752;2023-09-07T09:21:25;98675.03;;;12.40;78.91
42603;BME280;28233;55.748;48.752;2023-09-07T09:23:35;98672.09;;;12.33;78.20
42603;BME280;28233;55.748;48.752;2023-09-07T09:25:40;98675.53;;;12.14;79.47
42603;BME280;28233;55.748;48.752;2023-09-07T09:27:43;98675.53;;;12.14;80.12
42603;BME280;28233;55.748;48.752;2023-09-07T09:29:49;98679.19;;;12.18;80.73
42603;BME280;28233;55.748;48.752;2023-09-07T09:31:53;98672.16;;;12.21;81.07
42603;BME280;28233;55.748;48.752;2023-09-07T09:33:58;98673.94;;;12.29;80.66
42603;BME280;28233;55.748;48.752;2023-09-07T09:36:00;98675.31;;;12.51;81.56
42603;BME280;28233;55.748;48.752;2023-09-07T09:38:04;98681.25;;;12.85;80.10
42603;BME280;28233;55.748;48.752;2023-09-07T09:40:07;98677.34;;;13.21;77.85
42603;BME280;28233;55.748;48.752;2023-09-07T09:42:12;98667.34;;;13.48;76.17
42603;BME280;28233;55.748;48.752;2023-09-07T09:44:16;98673.78;;;13.75;75.42
42603;BME280;28233;55.748;48.752;2023-09-07T09:46:19;98665.13;;;13.96;73.39
42603;BME280;28233;55.748;48.752;2023-09-07T09:48:22;98668.59;;;14.13;71.48
42603;BME280;28233;55.748;48.752;2023-09-07T09:50:26;98669.41;;;14.36;70.72
42603;BME280;28233;55.748;48.752;2023-09-07T09:52:30;98667.88;;;14.58;69.74
42603;BME280;28233;55.748;48.752;2023-09-07T09:54:35;98678.38;;;14.72;65.81
42603;BME280;28233;55.748;48.752;2023-09-07T09:56:37;98664.91;;;14.71;65.76
42603;BME280;28233;55.748;48.752;2023-09-07T09:58:40;98670.44;;;14.71;64.88
42603;BME280;28233;55.748;48.752;2023-09-07T10:00:45;98679.03;;;14.66;63.91
42603;BME280;28233;55.748;48.752;2023-09-07T10:02:55;98671.63;;;14.70;63.02
42603;BME280;28233;55.748;48.752;2023-09-07T10:05:02;98667.44;;;14.79;63.07
42603;BME280;28233;55.748;48.752;2023-09-07T10:07:09;98674.34;;;14.93;62.29
42603;BME280;28233;55.748;48.752;2023-09-07T10:09:12;98667.47;;;15.10;60.75
42603;BME280;28233;55.748;48.752;2023-09-07T10:11:29;98665.84;;;15.05;59.42
42603;BME280;28233;55.748;48.752;2023-09-07T10:13:33;98685.34;;;15.16;59.31
42603;BME280;28233;55.748;48.752;2023-09-07T10:15:38;98683.28;;;15.36;58.49
42603;BME280;28233;55.748;48.752;2023-09-07T10:17:41;98676.00;;;15.54;58.10
42603;BME280;28233;55.748;48.752;2023-09-07T10:19:44;98671.41;;;15.65;57.12
42603;BME280;28233;55.748;48.752;2023-09-07T10:21:54;98674.50;;;15.60;57.10
42603;BME280;28233;55.748;48.752;2023-09-07T10:23:57;98664.97;;;15.58;56.47
42603;BME280;28233;55.748;48.752;2023-09-07T10:26:00;98679.06;;;15.46;56.32
42603;BME280;28233;55.748;48.752;2023-09-07T10:28:22;98667.47;;;15.36;56.82
42603;BME280;28233;55.748;48.752;2023-09-07T10:30:26;98672.16;;;15.32;57.05
42603;BME280;28233;55.748;48.752;2023-09-07T10:32:38;98668.84;;;15.23;56.97
42603;BME280;28233;55.748;48.752;2023-09-07T10:34:43;98664.59;;;15.29;57.30
42603;BME280;28233;55.748;48.752;2023-09-07T10:36:46;98659.06;;;15.29;57.42
42603;BME280;28233;55.748;48.752;2023-09-07T10:38:51;98673.63;;;15.26;58.14
42603;BME280;28233;55.748;48.752;2023-09-07T10:40:58;98664.94;;;15.24;57.50
42603;BME280;28233;55.748;48.752;2023-09-07T10:43:02;98676.09;;;15.05;57.89
42603;BME280;28233;55.748;48.752;2023-09-07T10:45:14;98672.75;;;14.92;62.11